Terminal Aerodrome Forecast
Issued by NWS

Home | Current Version | Previous Version | Text Only | Print | Product List | Glossary On
Versions: 1 2 3 4 5 6 7 8 9 10 11 12 13 14 15 16 17 18 19
000
FTUS46 KPQR 211344 AAA
TAFONP
TAF AMD
KONP 211344Z 2114/2212 00000KT P6SM SCT025 BKN040
     FM211400 VRB05KT P6SM -SHRA OVC030
     FM212300 30008KT 4SM -RA BR OVC020
     FM220300 32004KT 6SM -RA BR SCT015 OVC030=

USA.gov is the U.S. government's official web portal to all federal, state and local government web resources and services.